sensor_id;sensor_type;location;lat;lon;timestamp;temperature;humidity
6822;DHT22;3449;48.728;8.968;2023-08-06T00:01:12;14.10;99.90
6822;DHT22;3449;48.728;8.968;2023-08-06T00:03:39;14.10;99.90
6822;DHT22;3449;48.728;8.968;2023-08-06T00:06:06;14.10;99.90
6822;DHT22;3449;48.728;8.968;2023-08-06T00:08:33;14.10;99.90
6822;DHT22;3449;48.728;8.968;2023-08-06T00:10:59;14.10;99.90
6822;DHT22;3449;48.728;8.968;2023-08-06T00:13:26;14.10;99.90
6822;DHT22;3449;48.728;8.968;2023-08-06T00:15:54;14.00;99.90
6822;DHT22;3449;48.728;8.968;2023-08-06T00:18:21;14.00;99.90
6822;DHT22;3449;48.728;8.968;2023-08-06T00:20:48;13.90;99.90
6822;DHT22;3449;48.728;8.968;2023-08-06T00:23:15;13.90;99.90
6822;DHT22;3449;48.728;8.968;2023-08-06T00:25:42;13.90;99.90
6822;DHT22;3449;48.728;8.968;2023-08-06T00:28:08;13.90;99.90
6822;DHT22;3449;48.728;8.968;2023-08-06T00:30:35;13.80;99.90
6822;DHT22;3449;48.728;8.968;2023-08-06T00:33:03;13.80;99.90
6822;DHT22;3449;48.728;8.968;2023-08-06T00:35:30;13.80;99.90
6822;DHT22;3449;48.728;8.968;2023-08-06T00:37:57;13.80;99.90
6822;DHT22;3449;48.728;8.968;2023-08-06T00:40:24;13.70;99.90
6822;DHT22;3449;48.728;8.968;2023-08-06T00:42:51;13.80;99.90
6822;DHT22;3449;48.728;8.968;2023-08-06T00:45:17;13.70;99.90
6822;DHT22;3449;48.728;8.968;2023-08-06T00:47:44;13.70;99.90
6822;DHT22;3449;48.728;8.968;2023-08-06T00:50:13;13.70;99.90
6822;DHT22;3449;48.728;8.968;2023-08-06T00:52:41;13.60;99.90
6822;DHT22;3449;48.728;8.968;2023-08-06T00:55:08;13.60;99.90
6822;DHT22;3449;48.728;8.968;2023-08-06T00:57:36;13.60;99.90
6822;DHT22;3449;48.728;8.968;2023-08-06T01:00:04;13.50;99.90
6822;DHT22;3449;48.728;8.968;2023-08-06T01:02:31;13.50;99.90
6822;DHT22;3449;48.728;8.968;2023-08-06T01:04:58;13.50;99.90
6822;DHT22;3449;48.728;8.968;2023-08-06T01:07:36;13.50;99.90
6822;DHT22;3449;48.728;8.968;2023-08-06T01:10:19;13.50;99.90
6822;DHT22;3449;48.728;8.968;2023-08-06T01:12:53;13.50;99.90
6822;DHT22;3449;48.728;8.968;2023-08-06T01:15:23;13.50;99.90
6822;DHT22;3449;48.728;8.968;2023-08-06T01:17:51;13.50;99.90
6822;DHT22;3449;48.728;8.968;2023-08-06T01:20:18;13.40;99.90
6822;DHT22;3449;48.728;8.968;2023-08-06T01:22:47;13.40;99.90
6822;DHT22;3449;48.728;8.968;2023-08-06T01:25:15;13.30;99.90
6822;DHT22;3449;48.728;8.968;2023-08-06T01:27:48;13.30;99.90
6822;DHT22;3449;48.728;8.968;2023-08-06T01:30:17;13.30;99.90
6822;DHT22;3449;48.728;8.968;2023-08-06T01:32:49;13.20;99.90
6822;DHT22;3449;48.728;8.968;2023-08-06T01:35:18;13.20;99.90
6822;DHT22;3449;48.728;8.968;2023-08-06T01:37:49;13.20;99.90
6822;DHT22;3449;48.728;8.968;2023-08-06T01:40:16;13.10;99.90
6822;DHT22;3449;48.728;8.968;2023-08-06T01:42:43;13.00;99.90
6822;DHT22;3449;48.728;8.968;2023-08-06T01:45:10;13.00;99.90
6822;DHT22;3449;48.728;8.968;2023-08-06T01:47:39;13.00;99.90
6822;DHT22;3449;48.728;8.968;2023-08-06T01:50:06;12.90;99.90
6822;DHT22;3449;48.728;8.968;2023-08-06T01:52:33;12.80;99.90
6822;DHT22;3449;48.728;8.968;2023-08-06T01:55:02;12.80;99.90
6822;DHT22;3449;48.728;8.968;2023-08-06T01:57:28;12.80;99.90
6822;DHT22;3449;48.728;8.968;2023-08-06T01:59:55;12.80;99.90
6822;DHT22;3449;48.728;8.968;2023-08-06T02:02:22;12.80;99.90
6822;DHT22;3449;48.728;8.968;2023-08-06T02:04:49;12.70;99.90
6822;DHT22;3449;48.728;8.968;2023-08-06T02:07:16;12.70;99.90
6822;DHT22;3449;48.728;8.968;2023-08-06T02:09:42;12.70;99.90
6822;DHT22;3449;48.728;8.968;2023-08-06T02:12:11;12.70;99.90
6822;DHT22;3449;48.728;8.968;2023-08-06T02:14:37;12.70;99.90
6822;DHT22;3449;48.728;8.968;2023-08-06T02:17:04;12.70;99.90
6822;DHT22;3449;48.728;8.968;2023-08-06T02:19:31;12.70;99.90
6822;DHT22;3449;48.728;8.968;2023-08-06T02:21:58;12.60;99.90
6822;DHT22;3449;48.728;8.968;2023-08-06T02:24:25;12.60;99.90
6822;DHT22;3449;48.728;8.968;2023-08-06T02:26:52;12.60;99.90
6822;DHT22;3449;48.728;8.968;2023-08-06T02:29:23;12.50;99.90
6822;DHT22;3449;48.728;8.968;2023-08-06T02:31:49;12.50;99.90
6822;DHT22;3449;48.728;8.968;2023-08-06T02:34:16;12.50;99.90
6822;DHT22;3449;48.728;8.968;2023-08-06T02:36:43;12.40;99.90
6822;DHT22;3449;48.728;8.968;2023-08-06T02:39:10;12.40;99.90
6822;DHT22;3449;48.728;8.968;2023-08-06T02:41:37;12.40;99.90
6822;DHT22;3449;48.728;8.968;2023-08-06T02:44:04;12.40;99.90
6822;DHT22;3449;48.728;8.968;2023-08-06T02:46:33;12.40;99.90
6822;DHT22;3449;48.728;8.968;2023-08-06T02:49:00;12.40;99.90
6822;DHT22;3449;48.728;8.968;2023-08-06T02:51:27;12.40;99.90
6822;DHT22;3449;48.728;8.968;2023-08-06T02:53:56;12.40;99.90
6822;DHT22;3449;48.728;8.968;2023-08-06T02:56:22;12.40;99.90
6822;DHT22;3449;48.728;8.968;2023-08-06T02:58:49;12.40;99.90
6822;DHT22;3449;48.728;8.968;2023-08-06T03:01:16;12.40;99.90
6822;DHT22;3449;48.728;8.968;2023-08-06T03:03:44;12.40;99.90
6822;DHT22;3449;48.728;8.968;2023-08-06T03:06:11;12.50;99.90
6822;DHT22;3449;48.728;8.968;2023-08-06T03:08:38;12.50;99.90
6822;DHT22;3449;48.728;8.968;2023-08-06T03:11:05;12.60;99.90
6822;DHT22;3449;48.728;8.968;2023-08-06T03:13:31;12.60;99.90
6822;DHT22;3449;48.728;8.968;2023-08-06T03:15:59;12.70;99.90
6822;DHT22;3449;48.728;8.968;2023-08-06T03:18:27;12.70;99.90
6822;DHT22;3449;48.728;8.968;2023-08-06T03:20:55;12.70;99.90
6822;DHT22;3449;48.728;8.968;2023-08-06T03:23:22;12.80;99.90
6822;DHT22;3449;48.728;8.968;2023-08-06T03:25:49;12.80;99.90
6822;DHT22;3449;48.728;8.968;2023-08-06T03:28:16;12.80;99.90
6822;DHT22;3449;48.728;8.968;2023-08-06T03:30:43;12.80;99.90
6822;DHT22;3449;48.728;8.968;2023-08-06T03:33:09;12.80;99.90
6822;DHT22;3449;48.728;8.968;2023-08-06T03:35:39;12.80;99.90
6822;DHT22;3449;48.728;8.968;2023-08-06T03:38:07;12.80;99.90
6822;DHT22;3449;48.728;8.968;2023-08-06T03:40:35;12.80;99.90
6822;DHT22;3449;48.728;8.968;2023-08-06T03:43:02;12.90;99.90
6822;DHT22;3449;48.728;8.968;2023-08-06T03:45:29;12.90;99.90
6822;DHT22;3449;48.728;8.968;2023-08-06T03:47:56;12.90;99.90
6822;DHT22;3449;48.728;8.968;2023-08-06T03:50:22;12.90;99.90
6822;DHT22;3449;48.728;8.968;2023-08-06T03:52:49;12.90;99.90
6822;DHT22;3449;48.728;8.968;2023-08-06T03:55:23;12.90;99.90
6822;DHT22;3449;48.728;8.968;2023-08-06T03:57:50;12.90;99.90
6822;DHT22;3449;48.728;8.968;2023-08-06T04:00:17;13.00;99.90
6822;DHT22;3449;48.728;8.968;2023-08-06T04:02:44;13.00;99.90
6822;DHT22;3449;48.728;8.968;2023-08-06T04:05:11;12.90;99.90
6822;DHT22;3449;48.728;8.968;2023-08-06T04:07:38;12.90;99.90
6822;DHT22;3449;48.728;8.968;2023-08-06T04:10:05;12.90;99.90
6822;DHT22;3449;48.728;8.968;2023-08-06T04:12:33;12.90;99.90
6822;DHT22;3449;48.728;8.968;2023-08-06T04:15:05;13.00;99.90
6822;DHT22;3449;48.728;8.968;2023-08-06T04:17:32;13.00;99.90
6822;DHT22;3449;48.728;8.968;2023-08-06T04:19:59;13.00;99.90
6822;DHT22;3449;48.728;8.968;2023-08-06T04:22:27;13.00;99.90
6822;DHT22;3449;48.728;8.968;2023-08-06T04:24:54;13.00;99.90
6822;DHT22;3449;48.728;8.968;2023-08-06T04:27:21;13.10;99.90
6822;DHT22;3449;48.728;8.968;2023-08-06T04:29:49;13.10;99.90
6822;DHT22;3449;48.728;8.968;2023-08-06T04:32:16;13.10;99.90
6822;DHT22;3449;48.728;8.968;2023-08-06T04:34:42;13.10;99.90
6822;DHT22;3449;48.728;8.968;2023-08-06T04:37:09;13.10;99.90
6822;DHT22;3449;48.728;8.968;2023-08-06T04:39:36;13.10;99.90
6822;DHT22;3449;48.728;8.968;2023-08-06T04:42:04;13.10;99.90
6822;DHT22;3449;48.728;8.968;2023-08-06T04:44:31;13.00;99.90
6822;DHT22;3449;48.728;8.968;2023-08-06T04:46:59;13.00;99.90
6822;DHT22;3449;48.728;8.968;2023-08-06T04:49:26;13.10;99.90
6822;DHT22;3449;48.728;8.968;2023-08-06T04:51:53;13.10;99.90
6822;DHT22;3449;48.728;8.968;2023-08-06T04:54:19;13.10;99.90
6822;DHT22;3449;48.728;8.968;2023-08-06T04:56:46;13.10;99.90
6822;DHT22;3449;48.728;8.968;2023-08-06T04:59:13;13.10;99.90
6822;DHT22;3449;48.728;8.968;2023-08-06T05:01:40;13.10;99.90
6822;DHT22;3449;48.728;8.968;2023-08-06T05:04:08;13.10;99.90
6822;DHT22;3449;48.728;8.968;2023-08-06T05:06:35;13.10;99.90
6822;DHT22;3449;48.728;8.968;2023-08-06T05:09:03;13.10;99.90
6822;DHT22;3449;48.728;8.968;2023-08-06T05:11:30;13.10;99.90
6822;DHT22;3449;48.728;8.968;2023-08-06T05:13:57;13.20;99.90
6822;DHT22;3449;48.728;8.968;2023-08-06T05:16:24;13.20;99.90
6822;DHT22;3449;48.728;8.968;2023-08-06T05:18:50;13.20;99.90
6822;DHT22;3449;48.728;8.968;2023-08-06T05:21:19;13.30;99.90
6822;DHT22;3449;48.728;8.968;2023-08-06T05:23:45;13.40;99.90
6822;DHT22;3449;48.728;8.968;2023-08-06T05:26:12;13.50;99.90
6822;DHT22;3449;48.728;8.968;2023-08-06T05:28:41;13.50;99.90
6822;DHT22;3449;48.728;8.968;2023-08-06T05:31:10;13.60;99.90
6822;DHT22;3449;48.728;8.968;2023-08-06T05:33:36;13.60;99.90
6822;DHT22;3449;48.728;8.968;2023-08-06T05:36:04;13.60;99.90
6822;DHT22;3449;48.728;8.968;2023-08-06T05:38:32;13.60;99.90
6822;DHT22;3449;48.728;8.968;2023-08-06T05:40:59;13.60;99.90
6822;DHT22;3449;48.728;8.968;2023-08-06T05:43:26;13.60;99.90
6822;DHT22;3449;48.728;8.968;2023-08-06T05:45:52;13.50;99.90
6822;DHT22;3449;48.728;8.968;2023-08-06T05:48:21;13.60;99.90
6822;DHT22;3449;48.728;8.968;2023-08-06T05:50:51;13.60;99.90
6822;DHT22;3449;48.728;8.968;2023-08-06T05:53:18;13.50;99.90
6822;DHT22;3449;48.728;8.968;2023-08-06T05:55:47;13.50;99.90
6822;DHT22;3449;48.728;8.968;2023-08-06T05:58:14;13.50;99.90
6822;DHT22;3449;48.728;8.968;2023-08-06T06:00:41;13.40;99.90
6822;DHT22;3449;48.728;8.968;2023-08-06T06:03:07;13.50;99.90
6822;DHT22;3449;48.728;8.968;2023-08-06T06:05:34;13.50;99.90
6822;DHT22;3449;48.728;8.968;2023-08-06T06:08:03;13.50;99.90
6822;DHT22;3449;48.728;8.968;2023-08-06T06:10:30;13.50;99.90
6822;DHT22;3449;48.728;8.968;2023-08-06T06:12:58;13.60;99.90
6822;DHT22;3449;48.728;8.968;2023-08-06T06:15:25;13.60;99.90
6822;DHT22;3449;48.728;8.968;2023-08-06T06:17:52;13.60;99.90
6822;DHT22;3449;48.728;8.968;2023-08-06T06:20:19;13.50;99.90
6822;DHT22;3449;48.728;8.968;2023-08-06T06:22:46;13.60;99.90
6822;DHT22;3449;48.728;8.968;2023-08-06T06:25:13;13.50;99.90
6822;DHT22;3449;48.728;8.968;2023-08-06T06:27:39;13.50;99.90
6822;DHT22;3449;48.728;8.968;2023-08-06T06:30:09;13.60;99.90
6822;DHT22;3449;48.728;8.968;2023-08-06T06:32:37;13.60;99.90
6822;DHT22;3449;48.728;8.968;2023-08-06T06:35:05;13.60;99.90
6822;DHT22;3449;48.728;8.968;2023-08-06T06:37:32;13.70;99.90
6822;DHT22;3449;48.728;8.968;2023-08-06T06:39:59;13.80;99.90
6822;DHT22;3449;48.728;8.968;2023-08-06T06:42:26;13.80;99.90
6822;DHT22;3449;48.728;8.968;2023-08-06T06:44:56;13.80;99.90
6822;DHT22;3449;48.728;8.968;2023-08-06T06:47:24;13.80;99.90
6822;DHT22;3449;48.728;8.968;2023-08-06T06:49:51;13.70;99.90
6822;DHT22;3449;48.728;8.968;2023-08-06T06:52:17;13.70;99.90
6822;DHT22;3449;48.728;8.968;2023-08-06T06:54:44;13.70;99.90
6822;DHT22;3449;48.728;8.968;2023-08-06T06:57:11;13.60;99.90
6822;DHT22;3449;48.728;8.968;2023-08-06T06:59:38;13.50;99.90
6822;DHT22;3449;48.728;8.968;2023-08-06T07:02:05;13.50;99.90
6822;DHT22;3449;48.728;8.968;2023-08-06T07:04:33;13.50;99.90
6822;DHT22;3449;48.728;8.968;2023-08-06T07:07:00;13.50;99.90
6822;DHT22;3449;48.728;8.968;2023-08-06T07:09:27;13.40;99.90
6822;DHT22;3449;48.728;8.968;2023-08-06T07:11:54;13.30;99.90
6822;DHT22;3449;48.728;8.968;2023-08-06T07:14:21;13.20;99.90
6822;DHT22;3449;48.728;8.968;2023-08-06T07:16:50;13.20;99.90
6822;DHT22;3449;48.728;8.968;2023-08-06T07:19:17;13.10;99.90
6822;DHT22;3449;48.728;8.968;2023-08-06T07:21:51;13.20;99.90
6822;DHT22;3449;48.728;8.968;2023-08-06T07:24:18;13.10;99.90
6822;DHT22;3449;48.728;8.968;2023-08-06T07:26:45;13.20;99.90
6822;DHT22;3449;48.728;8.968;2023-08-06T07:29:11;13.30;99.90
6822;DHT22;3449;48.728;8.968;2023-08-06T07:31:45;13.30;99.90
6822;DHT22;3449;48.728;8.968;2023-08-06T07:34:12;13.30;99.90
6822;DHT22;3449;48.728;8.968;2023-08-06T07:36:38;13.30;99.90
6822;DHT22;3449;48.728;8.968;2023-08-06T07:39:07;13.30;99.90
6822;DHT22;3449;48.728;8.968;2023-08-06T07:41:35;13.30;99.90
6822;DHT22;3449;48.728;8.968;2023-08-06T07:44:02;13.10;99.90
6822;DHT22;3449;48.728;8.968;2023-08-06T07:46:29;13.20;99.90
6822;DHT22;3449;48.728;8.968;2023-08-06T07:48:56;13.30;99.90
6822;DHT22;3449;48.728;8.968;2023-08-06T07:51:22;13.20;99.90
6822;DHT22;3449;48.728;8.968;2023-08-06T07:53:49;13.30;99.90
6822;DHT22;3449;48.728;8.968;2023-08-06T07:56:21;13.40;99.90
6822;DHT22;3449;48.728;8.968;2023-08-06T07:58:49;13.50;99.90
6822;DHT22;3449;48.728;8.968;2023-08-06T08:01:16;13.70;99.90
6822;DHT22;3449;48.728;8.968;2023-08-06T08:03:42;13.90;99.90
6822;DHT22;3449;48.728;8.968;2023-08-06T08:06:09;14.00;99.90
6822;DHT22;3449;48.728;8.968;2023-08-06T08:08:36;14.10;99.90
6822;DHT22;3449;48.728;8.968;2023-08-06T08:11:05;14.10;99.90
6822;DHT22;3449;48.728;8.968;2023-08-06T08:13:36;14.20;99.90
6822;DHT22;3449;48.728;8.968;2023-08-06T08:16:03;14.20;99.90
6822;DHT22;3449;48.728;8.968;2023-08-06T08:18:29;14.10;99.90
6822;DHT22;3449;48.728;8.968;2023-08-06T08:20:57;14.00;99.90
6822;DHT22;3449;48.728;8.968;2023-08-06T08:23:23;14.00;99.90
6822;DHT22;3449;48.728;8.968;2023-08-06T08:25:50;14.10;99.90
6822;DHT22;3449;48.728;8.968;2023-08-06T08:28:21;14.00;99.90
6822;DHT22;3449;48.728;8.968;2023-08-06T08:34:06;13.80;99.90
6822;DHT22;3449;48.728;8.968;2023-08-06T08:36:38;13.80;99.90
6822;DHT22;3449;48.728;8.968;2023-08-06T08:39:05;13.90;99.90
6822;DHT22;3449;48.728;8.968;2023-08-06T08:41:34;13.90;99.90
6822;DHT22;3449;48.728;8.968;2023-08-06T08:44:02;13.90;99.90
6822;DHT22;3449;48.728;8.968;2023-08-06T08:46:30;13.80;99.90
6822;DHT22;3449;48.728;8.968;2023-08-06T08:49:02;13.90;99.90
6822;DHT22;3449;48.728;8.968;2023-08-06T08:51:30;13.90;99.90
6822;DHT22;3449;48.728;8.968;2023-08-06T08:53:58;13.90;99.90
6822;DHT22;3449;48.728;8.968;2023-08-06T08:56:25;14.00;99.90
6822;DHT22;3449;48.728;8.968;2023-08-06T08:58:52;14.20;99.90
6822;DHT22;3449;48.728;8.968;2023-08-06T09:01:22;14.20;99.90
6822;DHT22;3449;48.728;8.968;2023-08-06T09:03:50;14.30;99.90
6822;DHT22;3449;48.728;8.968;2023-08-06T09:06:19;14.30;99.90
6822;DHT22;3449;48.728;8.968;2023-08-06T09:08:54;14.50;99.90
6822;DHT22;3449;48.728;8.968;2023-08-06T09:11:23;14.50;99.90
6822;DHT22;3449;48.728;8.968;2023-08-06T09:13:53;14.60;99.90
6822;DHT22;3449;48.728;8.968;2023-08-06T09:16:20;14.70;99.90
6822;DHT22;3449;48.728;8.968;2023-08-06T09:18:47;14.90;99.90
6822;DHT22;3449;48.728;8.968;2023-08-06T09:21:14;14.90;99.90
6822;DHT22;3449;48.728;8.968;2023-08-06T09:23:41;14.80;99.90
6822;DHT22;3449;48.728;8.968;2023-08-06T09:26:13;14.80;99.90
6822;DHT22;3449;48.728;8.968;2023-08-06T09:28:40;14.80;99.90
6822;DHT22;3449;48.728;8.968;2023-08-06T09:31:09;14.80;99.90
6822;DHT22;3449;48.728;8.968;2023-08-06T09:33:37;14.70;99.90
6822;DHT22;3449;48.728;8.968;2023-08-06T09:36:08;14.70;99.90
6822;DHT22;3449;48.728;8.968;2023-08-06T09:38:38;14.80;99.90
6822;DHT22;3449;48.728;8.968;2023-08-06T09:41:05;14.80;99.90
6822;DHT22;3449;48.728;8.968;2023-08-06T09:43:41;14.90;99.90
6822;DHT22;3449;48.728;8.968;2023-08-06T09:46:12;14.90;99.90
6822;DHT22;3449;48.728;8.968;2023-08-06T09:48:40;14.90;99.90
6822;DHT22;3449;48.728;8.968;2023-08-06T09:51:08;14.90;99.90
6822;DHT22;3449;48.728;8.968;2023-08-06T09:53:37;14.80;99.90
6822;DHT22;3449;48.728;8.968;2023-08-06T09:56:05;14.80;99.90
6822;DHT22;3449;48.728;8.968;2023-08-06T09:58:32;14.70;99.90
6822;DHT22;3449;48.728;8.968;2023-08-06T10:01:01;14.70;99.90
6822;DHT22;3449;48.728;8.968;2023-08-06T10:03:29;14.60;99.90
6822;DHT22;3449;48.728;8.968;2023-08-06T10:05:58;14.60;99.90
6822;DHT22;3449;48.728;8.968;2023-08-06T10:08:27;14.60;99.90
6822;DHT22;3449;48.728;8.968;2023-08-06T10:10:54;14.70;99.90
6822;DHT22;3449;48.728;8.968;2023-08-06T10:13:23;14.50;99.90
6822;DHT22;3449;48.728;8.968;2023-08-06T10:15:51;14.40;99.90
6822;DHT22;3449;48.728;8.968;2023-08-06T10:18:20;14.50;99.90
6822;DHT22;3449;48.728;8.968;2023-08-06T10:20:52;14.50;99.90
6822;DHT22;3449;48.728;8.968;2023-08-06T10:23:20;14.50;99.90
6822;DHT22;3449;48.728;8.968;2023-08-06T10:25:59;14.60;99.90
6822;DHT22;3449;48.728;8.968;2023-08-06T10:28:34;14.50;99.90
6822;DHT22;3449;48.728;8.968;2023-08-06T10:31:04;14.60;99.90
6822;DHT22;3449;48.728;8.968;2023-08-06T10:33:46;14.60;99.90
6822;DHT22;3449;48.728;8.968;2023-08-06T10:36:14;14.50;99.90
6822;DHT22;3449;48.728;8.968;2023-08-06T10:38:45;14.50;99.90
6822;DHT22;3449;48.728;8.968;2023-08-06T10:41:16;14.50;99.90
6822;DHT22;3449;48.728;8.968;2023-08-06T10:43:47;14.50;99.90
6822;DHT22;3449;48.728;8.968;2023-08-06T10:46:23;14.50;99.90
6822;DHT22;3449;48.728;8.968;2023-08-06T10:48:51;14.50;99.90
6822;DHT22;3449;48.728;8.968;2023-08-06T10:51:18;14.50;99.90
6822;DHT22;3449;48.728;8.968;2023-08-06T10:53:46;14.50;99.90
6822;DHT22;3449;48.728;8.968;2023-08-06T10:56:13;14.50;99.90
6822;DHT22;3449;48.728;8.968;2023-08-06T10:58:40;14.60;99.90
6822;DHT22;3449;48.728;8.968;2023-08-06T11:01:07;14.60;99.90
6822;DHT22;3449;48.728;8.968;2023-08-06T11:03:35;14.50;99.90
6822;DHT22;3449;48.728;8.968;2023-08-06T11:06:03;14.50;99.90
6822;DHT22;3449;48.728;8.968;2023-08-06T11:08:33;14.40;99.90
6822;DHT22;3449;48.728;8.968;2023-08-06T11:11:10;14.30;99.90
6822;DHT22;3449;48.728;8.968;2023-08-06T11:13:38;14.30;99.90
6822;DHT22;3449;48.728;8.968;2023-08-06T11:16:05;14.20;99.90
6822;DHT22;3449;48.728;8.968;2023-08-06T11:18:33;14.20;99.90
6822;DHT22;3449;48.728;8.968;2023-08-06T11:21:00;14.10;99.90
6822;DHT22;3449;48.728;8.968;2023-08-06T11:23:29;14.10;99.90
6822;DHT22;3449;48.728;8.968;2023-08-06T11:25:57;14.10;99.90
6822;DHT22;3449;48.728;8.968;2023-08-06T11:28:24;14.10;99.90
6822;DHT22;3449;48.728;8.968;2023-08-06T11:30:51;14.10;99.90
6822;DHT22;3449;48.728;8.968;2023-08-06T11:33:20;14.10;99.90
6822;DHT22;3449;48.728;8.968;2023-08-06T11:35:48;14.10;99.90
6822;DHT22;3449;48.728;8.968;2023-08-06T11:38:16;14.20;99.90
6822;DHT22;3449;48.728;8.968;2023-08-06T11:40:48;14.20;99.90
6822;DHT22;3449;48.728;8.968;2023-08-06T11:43:15;14.20;99.90
6822;DHT22;3449;48.728;8.968;2023-08-06T11:45:43;14.10;99.90
6822;DHT22;3449;48.728;8.968;2023-08-06T11:48:10;14.00;99.90
6822;DHT22;3449;48.728;8.968;2023-08-06T11:50:37;14.00;99.90
6822;DHT22;3449;48.728;8.968;2023-08-06T11:53:04;14.00;99.90
6822;DHT22;3449;48.728;8.968;2023-08-06T11:55:32;14.00;99.90
6822;DHT22;3449;48.728;8.968;2023-08-06T11:58:03;14.00;99.90
6822;DHT22;3449;48.728;8.968;2023-08-06T12:00:30;14.10;99.90
6822;DHT22;3449;48.728;8.968;2023-08-06T12:03:00;14.10;99.90
6822;DHT22;3449;48.728;8.968;2023-08-06T12:05:31;14.20;99.90
6822;DHT22;3449;48.728;8.968;2023-08-06T12:08:00;14.10;99.90
6822;DHT22;3449;48.728;8.968;2023-08-06T12:10:29;14.00;99.90
6822;DHT22;3449;48.728;8.968;2023-08-06T12:12:56;13.90;99.90
6822;DHT22;3449;48.728;8.968;2023-08-06T12:15:24;13.80;99.90
6822;DHT22;3449;48.728;8.968;2023-08-06T12:17:51;13.60;99.90
6822;DHT22;3449;48.728;8.968;2023-08-06T12:20:18;13.70;99.90
6822;DHT22;3449;48.728;8.968;2023-08-06T12:22:44;13.70;99.90
6822;DHT22;3449;48.728;8.968;2023-08-06T12:25:12;13.80;99.90
6822;DHT22;3449;48.728;8.968;2023-08-06T12:27:41;13.80;99.90
6822;DHT22;3449;48.728;8.968;2023-08-06T12:30:09;13.90;99.90
6822;DHT22;3449;48.728;8.968;2023-08-06T12:32:38;14.10;99.90
6822;DHT22;3449;48.728;8.968;2023-08-06T12:35:06;14.20;99.90
6822;DHT22;3449;48.728;8.968;2023-08-06T12:37:33;14.20;99.90
6822;DHT22;3449;48.728;8.968;2023-08-06T12:40:00;14.10;99.90
6822;DHT22;3449;48.728;8.968;2023-08-06T12:42:30;14.00;99.90
6822;DHT22;3449;48.728;8.968;2023-08-06T12:44:58;14.00;99.90
6822;DHT22;3449;48.728;8.968;2023-08-06T12:47:25;14.00;99.90
6822;DHT22;3449;48.728;8.968;2023-08-06T12:49:53;14.10;99.90
6822;DHT22;3449;48.728;8.968;2023-08-06T12:52:20;14.20;99.90
6822;DHT22;3449;48.728;8.968;2023-08-06T12:54:47;14.30;99.90
6822;DHT22;3449;48.728;8.968;2023-08-06T12:57:13;14.40;99.90
6822;DHT22;3449;48.728;8.968;2023-08-06T12:59:40;14.50;99.90
6822;DHT22;3449;48.728;8.968;2023-08-06T13:02:07;14.50;99.90
6822;DHT22;3449;48.728;8.968;2023-08-06T13:04:34;14.50;99.90
6822;DHT22;3449;48.728;8.968;2023-08-06T13:07:02;14.70;99.90
6822;DHT22;3449;48.728;8.968;2023-08-06T13:09:31;14.80;99.90
6822;DHT22;3449;48.728;8.968;2023-08-06T13:11:58;15.00;99.90
6822;DHT22;3449;48.728;8.968;2023-08-06T13:14:25;15.30;99.90
6822;DHT22;3449;48.728;8.968;2023-08-06T13:16:53;15.60;99.90
6822;DHT22;3449;48.728;8.968;2023-08-06T13:19:23;16.00;99.90
6822;DHT22;3449;48.728;8.968;2023-08-06T13:22:04;16.30;99.90
6822;DHT22;3449;48.728;8.968;2023-08-06T13:24:32;16.40;99.90
6822;DHT22;3449;48.728;8.968;2023-08-06T13:27:00;16.30;99.90
6822;DHT22;3449;48.728;8.968;2023-08-06T13:29:27;16.00;99.90
6822;DHT22;3449;48.728;8.968;2023-08-06T13:31:54;15.60;99.90
6822;DHT22;3449;48.728;8.968;2023-08-06T13:34:21;15.50;99.90
6822;DHT22;3449;48.728;8.968;2023-08-06T13:36:48;15.50;99.90
6822;DHT22;3449;48.728;8.968;2023-08-06T13:39:16;15.40;99.90
6822;DHT22;3449;48.728;8.968;2023-08-06T13:41:43;15.30;99.90
6822;DHT22;3449;48.728;8.968;2023-08-06T13:44:10;15.20;99.90
6822;DHT22;3449;48.728;8.968;2023-08-06T13:46:39;15.20;99.90
6822;DHT22;3449;48.728;8.968;2023-08-06T13:49:06;15.20;99.90
6822;DHT22;3449;48.728;8.968;2023-08-06T13:51:33;15.20;99.90
6822;DHT22;3449;48.728;8.968;2023-08-06T13:54:01;15.20;99.90
6822;DHT22;3449;48.728;8.968;2023-08-06T13:56:30;15.40;99.90
6822;DHT22;3449;48.728;8.968;2023-08-06T13:58:58;15.40;99.90
6822;DHT22;3449;48.728;8.968;2023-08-06T14:01:25;15.60;99.90
6822;DHT22;3449;48.728;8.968;2023-08-06T14:03:52;15.90;99.90
6822;DHT22;3449;48.728;8.968;2023-08-06T14:06:19;16.00;99.90
6822;DHT22;3449;48.728;8.968;2023-08-06T14:08:48;16.20;99.90
6822;DHT22;3449;48.728;8.968;2023-08-06T14:11:15;16.20;99.90
6822;DHT22;3449;48.728;8.968;2023-08-06T14:13:43;16.30;99.90
6822;DHT22;3449;48.728;8.968;2023-08-06T14:16:10;16.20;99.90
6822;DHT22;3449;48.728;8.968;2023-08-06T14:18:37;16.00;99.90
6822;DHT22;3449;48.728;8.968;2023-08-06T14:21:04;15.80;99.90
6822;DHT22;3449;48.728;8.968;2023-08-06T14:23:31;15.60;99.90
6822;DHT22;3449;48.728;8.968;2023-08-06T14:26:01;15.40;99.90
6822;DHT22;3449;48.728;8.968;2023-08-06T14:28:27;15.10;99.90
6822;DHT22;3449;48.728;8.968;2023-08-06T14:30:56;14.80;99.90
6822;DHT22;3449;48.728;8.968;2023-08-06T14:33:22;14.60;99.90
6822;DHT22;3449;48.728;8.968;2023-08-06T14:35:52;14.50;99.90
6822;DHT22;3449;48.728;8.968;2023-08-06T14:38:19;14.30;99.90
6822;DHT22;3449;48.728;8.968;2023-08-06T14:40:46;14.30;99.90
6822;DHT22;3449;48.728;8.968;2023-08-06T14:43:13;14.40;99.90
6822;DHT22;3449;48.728;8.968;2023-08-06T14:45:40;14.60;99.90
6822;DHT22;3449;48.728;8.968;2023-08-06T14:48:08;14.70;99.90
6822;DHT22;3449;48.728;8.968;2023-08-06T14:50:35;14.70;99.90
6822;DHT22;3449;48.728;8.968;2023-08-06T14:53:02;14.70;99.90
6822;DHT22;3449;48.728;8.968;2023-08-06T14:55:30;14.70;99.90
6822;DHT22;3449;48.728;8.968;2023-08-06T14:57:56;14.50;99.90
6822;DHT22;3449;48.728;8.968;2023-08-06T15:00:23;14.40;99.90
6822;DHT22;3449;48.728;8.968;2023-08-06T15:02:50;14.40;99.90
6822;DHT22;3449;48.728;8.968;2023-08-06T15:05:18;14.60;99.90
6822;DHT22;3449;48.728;8.968;2023-08-06T15:07:45;14.60;99.90
6822;DHT22;3449;48.728;8.968;2023-08-06T15:10:14;15.00;99.90
6822;DHT22;3449;48.728;8.968;2023-08-06T15:12:40;15.60;99.90
6822;DHT22;3449;48.728;8.968;2023-08-06T15:15:08;16.20;99.90
6822;DHT22;3449;48.728;8.968;2023-08-06T15:17:35;16.60;99.90
6822;DHT22;3449;48.728;8.968;2023-08-06T15:20:02;16.90;99.90
6822;DHT22;3449;48.728;8.968;2023-08-06T15:22:31;17.00;99.90
6822;DHT22;3449;48.728;8.968;2023-08-06T15:24:59;16.80;99.90
6822;DHT22;3449;48.728;8.968;2023-08-06T15:27:25;16.30;99.90
6822;DHT22;3449;48.728;8.968;2023-08-06T15:29:53;15.90;99.90
6822;DHT22;3449;48.728;8.968;2023-08-06T15:32:19;15.60;99.90
6822;DHT22;3449;48.728;8.968;2023-08-06T15:34:48;15.50;99.90
6822;DHT22;3449;48.728;8.968;2023-08-06T15:37:18;15.70;99.90
6822;DHT22;3449;48.728;8.968;2023-08-06T15:39:46;16.10;99.90
6822;DHT22;3449;48.728;8.968;2023-08-06T15:42:13;16.60;99.90
6822;DHT22;3449;48.728;8.968;2023-08-06T15:44:41;16.90;99.90
6822;DHT22;3449;48.728;8.968;2023-08-06T15:47:10;17.20;99.90
6822;DHT22;3449;48.728;8.968;2023-08-06T15:49:38;17.20;99.90
6822;DHT22;3449;48.728;8.968;2023-08-06T15:52:05;16.80;99.90
6822;DHT22;3449;48.728;8.968;2023-08-06T15:54:32;16.50;99.90
6822;DHT22;3449;48.728;8.968;2023-08-06T15:57:00;16.30;99.90
6822;DHT22;3449;48.728;8.968;2023-08-06T15:59:28;16.40;99.90
6822;DHT22;3449;48.728;8.968;2023-08-06T16:01:57;16.40;99.90
6822;DHT22;3449;48.728;8.968;2023-08-06T16:04:25;16.20;99.90
6822;DHT22;3449;48.728;8.968;2023-08-06T16:06:52;16.10;99.90
6822;DHT22;3449;48.728;8.968;2023-08-06T16:09:19;16.00;99.90